Weather observations for the past three days for
Farmingdale - Republic Airport
Metric (Imperial)
Date Time (edt) Wind (kph) Vis. (km) Weather Sky Cond. Temperature (ºC) Relative Humidity Wind Chill (°C) Heat Index (°C) Pressure Precipitation (cm)
Air Dwpt 6 hour altimeter (cm) sea level (mb) 1 hr 3 hr 6 hr
Max. Min.
06 01:53 SW 35 G 48 14.48 Fair and Breezy CLR 13.9 11.1 16.7 13.9 83% 75.84 1011.2
06 00:53 SW 24 G 41 16.09 Fair CLR 14.4 11.1 81% 75.87 1011.5
05 23:53 SW 39 G 56 16.09 Fair and Breezy CLR 14.4 11.1 81% 75.87 1011.5
05 22:53 S 37 G 54 16.09 Fair and Breezy CLR 15 11.1 78% 75.87 1011.4
05 21:53 S 33 G 57 16.09 Fair and Breezy CLR 15.6 10.6 72% 75.87 1011.5
05 20:53 SW 31 G 54 16.09 Fair CLR 16.1 10.6 70% 75.82 1010.8
05 19:53 S 31 G 56 14.48 Fair CLR 16.7 10.6 19.4 16.7 67% 75.77 1010.2
05 18:53 S 39 G 59 16.09 Fair and Breezy CLR 17.2 10.6 65% 75.72 1009.4
05 17:53 SW 43 G 72 16.09 Fair and Windy CLR 17.8 10.6 63% 75.69 1009.1
05 16:53 S 37 G 57 16.09 Fair and Breezy CLR 18.3 10.6 61% 75.67 1008.6
05 15:53 S 37 G 52 16.09 Fair and Breezy CLR 18.3 11.1 63% 75.69 1009.2
05 14:53 S 24 G 37 14.48 Fair CLR 18.3 11.7 66% 75.79 1010.3
05 13:53 S 24 16.09 Fair CLR 18.3 12.2 18.9 13.9 68% 75.82 1010.8
05 12:53 S 24 16.09 Fair CLR 17.8 11.7 68% 75.84 1011.2
05 11:53 S 19 16.09 Fair CLR 18.9 12.2 65% 75.9 1011.7
05 10:53 S 17 16.09 Fair CLR 17.8 12.2 70% 75.92 1012.1
05 09:53 S 19 16.09 Fair CLR 17.2 11.7 70% 75.9 1011.8
05 08:53 S 15 16.09 Fair CLR 15.6 11.7 78% 75.9 1011.6
05 07:53 S 9 12.87 Mostly Cloudy BKN110 13.9 11.1 13.9 11.1 83% 75.9 1011.7
05 06:53 SW 7 11.27 Fair CLR 12.8 10.6 87% 75.9 1011.7
05 05:53 S 11 9.66 Fog/Mist CLR 11.7 10 89% 75.82 1010.8
05 04:53 SW 11 11.27 Fair CLR 11.7 10.6 93% 75.82 1010.7
05 03:53 S 13 12.87 A Few Clouds FEW120 11.7 10 89% 75.82 1010.7
05 02:53 SW 11 14.48 Fair CLR 12.2 10 87% 75.82 1010.7
05 01:53 S 13 14.48 Fair CLR 12.2 10 13.3 12.2 87% 75.84 1011.0
05 00:53 S 22 16.09 Fair CLR 12.2 10 87% 75.87 1011.3
04 23:53 S 17 16.09 Fair CLR 12.8 9.4 80% 75.9 1011.6
04 22:53 SW 17 16.09 Fair CLR 13.3 9.4 77% 75.9 1011.7
04 21:53 SW 20 16.09 Fair CLR 13.3 8.9 75% 75.9 1011.7
04 20:53 S 20 G 41 16.09 Fair CLR 13.3 8.3 72% 75.84 1011.1
04 19:53 S 28 G 43 16.09 Fair CLR 13.3 8.3 18.3 13.3 72% 75.79 1010.5
04 18:53 S 35 G 46 16.09 Fair and Breezy CLR 13.3 8.9 75% 75.77 1010.3
04 17:53 S 31 G 46 16.09 Fair CLR 15 7.8 62% 75.82 1010.8
04 16:53 S 31 G 48 16.09 Fair CLR 16.1 7.8 58% 75.79 1010.6
04 15:53 S 31 G 48 16.09 Fair CLR 16.7 7.8 56% 75.82 1010.8
04 14:53 S 31 G 46 16.09 Fair CLR 17.8 7.2 50% 75.87 1011.2
04 13:53 SW 28 G 43 16.09 Fair CLR 17.8 6.7 17.8 12.2 48% 75.9 1011.6
04 12:53 SW 28 G 37 16.09 Fair CLR 17.8 6.1 46% 75.95 1012.3
04 11:53 S 22 G 35 16.09 Fair CLR 17.2 5 45% 76 1013.0
04 10:53 SW 28 G 39 16.09 Fair CLR 16.7 3.9 43% 76.02 1013.4
04 09:53 SW 22 16.09 Fair CLR 15.6 2.8 42% 76.05 1013.6
04 08:53 SW 19 16.09 Fair CLR 13.9 3.3 49% 76.07 1014.3
04 07:53 SW 20 G 33 16.09 Fair CLR 12.2 2.2 12.2 8.9 51% 76.07 1014.3
04 06:53 SW 11 16.09 Fair CLR 10.6 2.8 59% 76.1 1014.4
04 05:53 SW 13 16.09 Fair CLR 9.4 1.1 56% 8 76.07 1014.2
04 04:53 SW 13 16.09 Fair CLR 9.4 1.1 56% 8 76.05 1013.7
04 03:53 SW 7 16.09 Fair CLR 9.4 0.6 55% 9 76.02 1013.5
04 02:53 SW 11 16.09 Fair CLR 10 0.6 52% 9 75.97 1013.0
04 01:53 SW 15 16.09 Fair CLR 10.6 1.1 13.9 10 52% 75.97 1013.0
04 00:53 SW 11 16.09 Fair CLR 10 0.6 52% 9 75.97 1012.8
03 23:53 SW 7 16.09 Fair CLR 10.6 0 48% 75.95 1012.6
03 22:53 SW 7 16.09 Fair CLR 11.1 -2.8 38% 75.95 1012.4
03 21:53 SW 9 16.09 Fair CLR 11.7 -4.4 32% 75.95 1012.4
03 20:53 W 6 16.09 Mostly Cloudy BKN095 12.8 -5.6 28% 75.9 1011.7
03 19:53 W 11 16.09 Fair CLR 13.9 -6.1 15 12.2 25% 75.82 1010.9
03 18:53 W 17 G 28 16.09 Fair CLR 15 -7.2 21% 75.79 1010.4
03 17:53 NW 19 G 37 16.09 Fair CLR 15 -6.1 23% 75.77 1010.2
03 16:53 NW 19 G 46 16.09 Fair CLR 14.4 -6.7 23% 75.74 1009.8
03 15:53 NW 31 G 54 16.09 A Few Clouds FEW075 13.9 -5.6 26% 75.77 1010.1
03 14:53 W 24 G 44 16.09 Partly Cloudy SCT070 13.3 -3.9 30% 75.79 1010.6
03 13:53 NW 26 G 56 16.09 Mostly Cloudy BKN070 13.3 -5 13.3 7.8 28% 75.79 1010.5
03 12:53 W 26 G 44 16.09 Mostly Cloudy BKN075 12.2 -5 30% 75.82 1010.8
03 11:53 NW 19 G 39 16.09 Overcast SCT060 OVC075 10.6 -3.9 36% 75.84 1011.2
03 10:53 NW 19 G 39 16.09 Partly Cloudy SCT055 10.6 -2.8 39% 75.84 1011.1
03 09:53 NW 24 G 37 16.09 Fair CLR 10.6 -2.2 41% 75.84 1011.1
03 08:53 NW 22 G 33 16.09 Fair CLR 9.4 -1.7 46% 7 75.82 1010.9
03 07:53 NW 15 16.09 Overcast FEW080 OVC095 7.8 -2.2 9.4 6.7 50% 6 75.82 1011.0
03 06:53 NW 17 G 37 16.09 Overcast OVC095 7.2 -2.8 49% 5 75.79 1010.5
03 05:53 N 20 G 33 16.09 Overcast OVC095 7.2 -3.3 48% 4 75.74 1009.7
03 04:53 N 24 G 37 16.09 Overcast OVC100 7.8 -3.3 46% 5 75.74 1009.7
03 03:53 N 22 16.09 Overcast OVC100 8.3 -2.2 48% 5 75.74 1009.8
03 02:53 N 17 16.09 Overcast OVC080 8.9 -2.8 44% 7 75.72 1009.6
Date Time (edt) Wind (kph) Vis. (km) Weather Sky Cond. Air Dwpt Max. Min. Relative Humidity Wind Chill (°C) Heat Index (°C) altimeter (cm) sea level (mb) 1 hr 3 hr 6 hr
6 hour
Temperature (ºC) Pressure Precipitation (cm)